createdAt,value
2022-12-11T00:00:30.455Z,100.00
2022-12-11T00:02:58.415Z,100.00
2022-12-11T00:05:26.316Z,100.00
2022-12-11T00:07:54.117Z,100.00
2022-12-11T00:10:21.949Z,100.00
2022-12-11T00:12:49.731Z,100.00
2022-12-11T00:15:18.892Z,100.00
2022-12-11T00:17:46.718Z,100.00
2022-12-11T00:20:14.503Z,100.00
2022-12-11T00:22:42.290Z,100.00
2022-12-11T00:25:10.825Z,100.00
2022-12-11T00:27:39.265Z,100.00
2022-12-11T00:30:08.402Z,100.00
2022-12-11T00:32:37.932Z,100.00
2022-12-11T00:35:06.365Z,100.00
2022-12-11T00:37:34.226Z,100.00
2022-12-11T00:40:02.023Z,100.00
2022-12-11T00:42:29.845Z,100.00
2022-12-11T00:44:57.853Z,100.00
2022-12-11T00:47:25.645Z,100.00
2022-12-11T00:49:54.790Z,100.00
2022-12-11T00:52:23.431Z,100.00
2022-12-11T00:54:51.299Z,100.00
2022-12-11T00:57:19.089Z,100.00
2022-12-11T00:59:46.881Z,100.00
2022-12-11T01:02:14.668Z,100.00
2022-12-11T01:04:42.483Z,100.00
2022-12-11T01:07:11.677Z,100.00
2022-12-11T01:09:57.194Z,100.00
2022-12-11T01:12:26.352Z,100.00
2022-12-11T01:14:54.101Z,100.00
2022-12-11T01:17:21.892Z,100.00
2022-12-11T01:19:49.683Z,100.00
2022-12-11T01:22:18.867Z,100.00
2022-12-11T01:24:46.676Z,100.00
2022-12-11T01:27:14.847Z,100.00
2022-12-11T01:29:42.620Z,100.00
2022-12-11T01:32:10.403Z,100.00
2022-12-11T01:34:38.257Z,100.00
2022-12-11T01:37:06.047Z,100.00
2022-12-11T01:39:35.302Z,100.00
2022-12-11T01:42:03.143Z,100.00
2022-12-11T01:45:08.432Z,100.00
2022-12-11T01:47:36.443Z,100.00
2022-12-11T01:50:05.006Z,100.00
2022-12-11T01:52:32.830Z,100.00
2022-12-11T01:55:02.556Z,100.00
2022-12-11T01:57:31.176Z,100.00
2022-12-11T01:59:59.042Z,100.00
2022-12-11T02:02:30.516Z,100.00
2022-12-11T02:04:58.532Z,100.00
2022-12-11T02:07:26.364Z,100.00
2022-12-11T02:09:54.419Z,100.00
2022-12-11T02:12:30.214Z,100.00
2022-12-11T02:15:06.584Z,100.00
2022-12-11T02:17:39.840Z,100.00
2022-12-11T02:20:14.028Z,100.00
2022-12-11T02:23:05.885Z,100.00
2022-12-11T02:25:43.288Z,100.00
2022-12-11T02:28:19.918Z,100.00
2022-12-11T02:30:52.824Z,100.00
2022-12-11T02:33:27.162Z,100.00
2022-12-11T02:35:56.110Z,100.00
2022-12-11T02:38:28.281Z,100.00
2022-12-11T02:40:58.605Z,100.00
2022-12-11T02:43:28.955Z,100.00
2022-12-11T02:45:58.866Z,100.00
2022-12-11T02:48:27.029Z,100.00
2022-12-11T02:50:58.899Z,100.00
2022-12-11T02:53:30.808Z,100.00
2022-12-11T02:56:05.282Z,100.00
2022-12-11T02:58:36.607Z,100.00
2022-12-11T03:01:04.428Z,100.00
2022-12-11T03:03:32.315Z,100.00
2022-12-11T03:06:00.148Z,100.00
2022-12-11T03:08:28.048Z,100.00
2022-12-11T03:10:55.870Z,100.00
2022-12-11T03:13:24.330Z,100.00
2022-12-11T03:16:12.322Z,100.00
2022-12-11T03:18:45.941Z,100.00
2022-12-11T03:21:19.910Z,100.00
2022-12-11T03:23:55.717Z,100.00
2022-12-11T03:26:25.092Z,100.00
2022-12-11T03:28:59.600Z,100.00
2022-12-11T03:31:33.039Z,100.00
2022-12-11T03:34:07.305Z,100.00
2022-12-11T03:36:38.523Z,100.00
2022-12-11T03:39:10.338Z,100.00
2022-12-11T03:41:40.063Z,100.00
2022-12-11T03:44:09.453Z,100.00
2022-12-11T03:46:41.057Z,100.00
2022-12-11T03:49:15.462Z,100.00
2022-12-11T03:51:46.396Z,100.00
2022-12-11T03:54:14.329Z,100.00
2022-12-11T03:56:46.601Z,100.00
2022-12-11T03:59:14.457Z,100.00
2022-12-11T04:01:43.647Z,100.00
2022-12-11T04:04:11.887Z,100.00
2022-12-11T04:06:39.750Z,100.00
2022-12-11T04:09:07.657Z,100.00
2022-12-11T04:11:35.436Z,100.00
2022-12-11T04:14:21.799Z,100.00
2022-12-11T04:16:51.075Z,100.00
2022-12-11T04:19:37.288Z,100.00
2022-12-11T04:22:28.146Z,100.00
2022-12-11T04:24:55.921Z,100.00
2022-12-11T04:27:41.265Z,100.00
2022-12-11T04:30:12.009Z,100.00
2022-12-11T04:32:41.266Z,100.00
2022-12-11T04:35:11.153Z,100.00
2022-12-11T04:37:39.311Z,100.00
2022-12-11T04:40:10.557Z,100.00
2022-12-11T04:42:38.506Z,100.00
2022-12-11T04:45:08.881Z,100.00
2022-12-11T04:47:37.756Z,100.00
2022-12-11T04:50:08.958Z,100.00
2022-12-11T04:52:36.777Z,100.00
2022-12-11T04:55:05.076Z,100.00
2022-12-11T04:57:32.883Z,100.00
2022-12-11T05:00:00.961Z,100.00
2022-12-11T05:02:29.035Z,100.00
2022-12-11T05:04:56.800Z,100.00
2022-12-11T05:07:25.947Z,100.00
2022-12-11T05:09:53.742Z,100.00
2022-12-11T05:12:21.533Z,100.00
2022-12-11T05:14:52.323Z,100.00
2022-12-11T05:17:20.431Z,100.00
2022-12-11T05:19:49.005Z,100.00
2022-12-11T05:22:17.328Z,100.00
2022-12-11T05:24:46.657Z,100.00
2022-12-11T05:27:14.454Z,100.00
2022-12-11T05:29:42.279Z,100.00
2022-12-11T05:32:10.221Z,100.00
2022-12-11T05:34:38.269Z,100.00
2022-12-11T05:37:06.190Z,100.00
2022-12-11T05:39:34.238Z,100.00
2022-12-11T05:42:03.395Z,100.00
2022-12-11T05:44:31.171Z,100.00
2022-12-11T05:46:58.973Z,100.00
2022-12-11T05:49:30.798Z,100.00
2022-12-11T05:51:59.061Z,100.00
2022-12-11T05:54:26.818Z,100.00
2022-12-11T05:56:54.595Z,100.00
2022-12-11T05:59:23.747Z,100.00
2022-12-11T06:01:51.675Z,100.00
2022-12-11T06:04:19.552Z,100.00
2022-12-11T06:06:47.344Z,100.00
2022-12-11T06:09:16.969Z,100.00
2022-12-11T06:11:44.737Z,100.00
2022-12-11T06:14:13.915Z,100.00
2022-12-11T06:16:44.036Z,100.00
2022-12-11T06:19:16.077Z,100.00
2022-12-11T06:21:43.981Z,100.00
2022-12-11T06:24:12.339Z,100.00
2022-12-11T06:26:40.307Z,100.00
2022-12-11T06:29:12.597Z,100.00
2022-12-11T06:31:40.728Z,100.00
2022-12-11T06:34:10.914Z,100.00
2022-12-11T06:36:38.650Z,100.00
2022-12-11T06:39:06.408Z,100.00
2022-12-11T06:41:34.188Z,100.00
2022-12-11T06:44:02.290Z,100.00
2022-12-11T06:46:30.262Z,100.00
2022-12-11T06:48:58.058Z,100.00
2022-12-11T06:51:27.214Z,100.00
2022-12-11T06:53:56.829Z,100.00
2022-12-11T06:56:25.578Z,100.00
2022-12-11T06:58:53.963Z,100.00
2022-12-11T07:01:23.893Z,100.00
2022-12-11T07:03:53.835Z,100.00
2022-12-11T07:06:21.633Z,100.00
2022-12-11T07:08:50.854Z,100.00
2022-12-11T07:11:20.223Z,100.00
2022-12-11T07:13:48.373Z,100.00
2022-12-11T07:16:17.901Z,100.00
2022-12-11T07:18:49.141Z,100.00
2022-12-11T07:21:17.151Z,100.00
2022-12-11T07:23:45.150Z,100.00
2022-12-11T07:26:16.202Z,100.00
2022-12-11T07:28:44.179Z,100.00
2022-12-11T07:31:14.153Z,100.00
2022-12-11T07:33:43.284Z,100.00
2022-12-11T07:36:13.844Z,100.00
2022-12-11T07:38:42.174Z,100.00
2022-12-11T07:41:13.483Z,100.00
2022-12-11T07:43:43.783Z,100.00
2022-12-11T07:46:13.518Z,100.00
2022-12-11T07:48:43.109Z,100.00
2022-12-11T07:51:11.828Z,100.00
2022-12-11T07:53:39.919Z,100.00
2022-12-11T07:56:08.397Z,100.00
2022-12-11T07:58:37.004Z,100.00
2022-12-11T08:01:06.476Z,100.00
2022-12-11T08:03:34.404Z,100.00
2022-12-11T08:06:02.566Z,100.00
2022-12-11T08:08:30.409Z,100.00
2022-12-11T08:11:01.899Z,100.00
2022-12-11T08:13:29.753Z,100.00
2022-12-11T08:15:57.544Z,100.00
2022-12-11T08:18:26.735Z,100.00
2022-12-11T08:20:54.513Z,100.00
2022-12-11T08:23:22.315Z,100.00
2022-12-11T08:25:50.142Z,100.00
2022-12-11T08:28:17.942Z,100.00
2022-12-11T08:30:45.758Z,100.00
2022-12-11T08:33:13.571Z,100.00
2022-12-11T08:35:44.038Z,100.00
2022-12-11T08:38:11.875Z,100.00
2022-12-11T08:40:39.644Z,100.00
2022-12-11T08:43:07.444Z,100.00
2022-12-11T08:45:35.509Z,100.00
2022-12-11T08:48:03.297Z,100.00
2022-12-11T08:50:31.136Z,100.00
2022-12-11T08:53:00.272Z,100.00
2022-12-11T08:55:28.108Z,100.00
2022-12-11T08:57:56.267Z,100.00
2022-12-11T09:00:24.098Z,100.00
2022-12-11T09:02:51.911Z,100.00
2022-12-11T09:05:19.729Z,100.00
2022-12-11T09:07:47.943Z,100.00
2022-12-11T09:10:17.152Z,100.00
2022-12-11T09:12:44.906Z,100.00
2022-12-11T09:15:13.394Z,100.00
2022-12-11T09:17:41.427Z,100.00
2022-12-11T09:20:10.130Z,79.69
2022-12-11T09:22:37.907Z,65.70
2022-12-11T09:25:06.667Z,58.94
2022-12-11T09:27:36.668Z,62.11
2022-12-11T09:30:05.288Z,100.00
2022-12-11T09:32:33.089Z,100.00
2022-12-11T09:35:00.949Z,69.58
2022-12-11T09:37:28.799Z,66.03
2022-12-11T09:39:56.584Z,66.39
2022-12-11T09:42:33.398Z,100.00
2022-12-11T09:45:04.414Z,95.18
2022-12-11T09:47:37.149Z,100.00
2022-12-11T09:50:13.985Z,100.00
2022-12-11T09:52:56.491Z,100.00
2022-12-11T09:55:27.345Z,79.54
2022-12-11T09:58:03.546Z,63.00
2022-12-11T10:00:38.558Z,78.17
2022-12-11T10:03:34.006Z,92.36
2022-12-11T10:06:08.482Z,75.12
2022-12-11T10:08:45.931Z,91.82
2022-12-11T10:11:37.733Z,52.35
2022-12-11T10:14:12.410Z,62.50
2022-12-11T10:16:44.271Z,79.99
2022-12-11T10:19:18.278Z,100.00
2022-12-11T10:21:47.143Z,100.00
2022-12-11T10:24:48.943Z,100.00
2022-12-11T10:27:16.409Z,100.00
2022-12-11T10:29:44.380Z,100.00
2022-12-11T10:32:23.741Z,100.00
2022-12-11T10:34:57.271Z,100.00
2022-12-11T10:37:25.060Z,100.00
2022-12-11T10:39:53.045Z,100.00
2022-12-11T10:42:23.127Z,100.00
2022-12-11T10:44:59.209Z,100.00
2022-12-11T10:47:28.904Z,100.00
2022-12-11T10:49:58.910Z,100.00
2022-12-11T10:52:29.213Z,100.00
2022-12-11T10:55:01.125Z,100.00
2022-12-11T10:57:31.107Z,100.00
2022-12-11T11:00:00.347Z,100.00
2022-12-11T11:02:32.247Z,100.00
2022-12-11T11:05:01.474Z,100.00
2022-12-11T11:07:31.391Z,100.00
2022-12-11T11:10:15.206Z,100.00
2022-12-11T11:12:45.031Z,100.00
2022-12-11T11:15:17.309Z,100.00
2022-12-11T11:17:54.862Z,100.00
2022-12-11T11:20:25.767Z,100.00
2022-12-11T11:22:57.033Z,100.00
2022-12-11T11:25:27.072Z,100.00
2022-12-11T11:28:07.384Z,100.00
2022-12-11T11:30:38.053Z,100.00
2022-12-11T11:33:14.747Z,100.00
2022-12-11T11:35:53.580Z,100.00
2022-12-11T11:38:24.425Z,100.00
2022-12-11T11:41:05.625Z,100.00
2022-12-11T11:43:41.369Z,100.00
2022-12-11T11:46:15.942Z,100.00
2022-12-11T11:48:55.635Z,100.00
2022-12-11T11:51:28.119Z,100.00
2022-12-11T11:54:00.089Z,100.00
2022-12-11T11:56:31.459Z,100.00
2022-12-11T11:59:08.519Z,100.00
2022-12-11T12:01:36.513Z,100.00
2022-12-11T12:04:06.215Z,100.00
2022-12-11T12:06:50.494Z,89.20
2022-12-11T12:09:35.037Z,81.60
2022-12-11T12:12:17.115Z,91.98
2022-12-11T12:15:03.133Z,100.00
2022-12-11T12:17:41.138Z,100.00
2022-12-11T12:20:17.711Z,100.00
2022-12-11T12:22:59.153Z,100.00
2022-12-11T12:25:32.360Z,100.00
2022-12-11T12:28:11.682Z,100.00
2022-12-11T12:30:50.713Z,100.00
2022-12-11T12:33:32.130Z,100.00
2022-12-11T12:36:12.244Z,100.00
2022-12-11T12:38:53.944Z,100.00
2022-12-11T12:41:28.389Z,100.00
2022-12-11T12:44:14.005Z,100.00
2022-12-11T12:46:52.382Z,100.00
2022-12-11T12:49:31.551Z,100.00
2022-12-11T12:52:02.834Z,100.00
2022-12-11T12:54:33.164Z,100.00
2022-12-11T12:57:04.080Z,100.00
2022-12-11T12:59:31.868Z,100.00
2022-12-11T13:02:02.309Z,87.35
2022-12-11T13:04:58.251Z,82.04
2022-12-11T13:07:30.815Z,82.35
2022-12-11T13:10:03.789Z,75.75
2022-12-11T13:12:46.032Z,88.65
2022-12-11T13:15:33.602Z,78.64
2022-12-11T13:18:03.273Z,81.23
2022-12-11T13:20:33.567Z,85.57
2022-12-11T13:23:19.158Z,91.79
2022-12-11T13:25:51.254Z,95.18
2022-12-11T13:28:28.134Z,100.00
2022-12-11T13:31:01.841Z,100.00
2022-12-11T13:33:31.057Z,100.00
2022-12-11T13:36:24.397Z,100.00
2022-12-11T13:38:57.401Z,100.00
2022-12-11T13:41:25.592Z,100.00
2022-12-11T13:43:54.658Z,100.00
2022-12-11T13:46:27.641Z,100.00
2022-12-11T13:49:00.887Z,100.00
2022-12-11T13:51:32.296Z,100.00
2022-12-11T13:54:17.974Z,100.00
2022-12-11T13:57:05.262Z,100.00
2022-12-11T13:59:35.599Z,100.00
2022-12-11T14:02:11.236Z,100.00
2022-12-11T14:04:39.462Z,100.00
2022-12-11T14:07:10.598Z,100.00
2022-12-11T14:09:45.437Z,100.00
2022-12-11T14:12:19.724Z,100.00
2022-12-11T14:14:52.302Z,100.00
2022-12-11T14:17:25.160Z,100.00
2022-12-11T14:19:53.470Z,100.00
2022-12-11T14:22:23.432Z,100.00
2022-12-11T14:24:54.578Z,100.00
2022-12-11T14:27:22.835Z,100.00
2022-12-11T14:29:51.108Z,100.00
2022-12-11T14:32:24.783Z,100.00
2022-12-11T14:34:53.803Z,100.00
2022-12-11T14:37:24.313Z,100.00
2022-12-11T14:39:58.814Z,100.00
2022-12-11T14:42:31.710Z,100.00
2022-12-11T14:45:04.697Z,100.00
2022-12-11T14:47:37.995Z,100.00
2022-12-11T14:50:09.201Z,100.00
2022-12-11T14:52:41.019Z,100.00
2022-12-11T14:55:16.322Z,100.00
2022-12-11T14:57:47.459Z,100.00
2022-12-11T15:00:26.628Z,100.00
2022-12-11T15:03:03.018Z,100.00
2022-12-11T15:05:37.178Z,100.00
2022-12-11T15:08:24.719Z,100.00
2022-12-11T15:11:06.961Z,100.00
2022-12-11T15:13:37.203Z,100.00
2022-12-11T15:16:08.371Z,100.00
2022-12-11T15:18:40.247Z,100.00
2022-12-11T15:21:10.811Z,100.00
2022-12-11T15:23:50.971Z,100.00
2022-12-11T15:26:20.707Z,100.00
2022-12-11T15:28:48.580Z,100.00
2022-12-11T15:31:26.414Z,100.00
2022-12-11T15:33:54.612Z,100.00
2022-12-11T15:36:26.674Z,100.00
2022-12-11T15:38:54.554Z,100.00
2022-12-11T15:41:24.880Z,100.00
2022-12-11T15:43:58.258Z,100.00
2022-12-11T15:46:27.036Z,100.00
2022-12-11T15:48:56.438Z,100.00
2022-12-11T15:51:25.320Z,100.00
2022-12-11T15:53:53.097Z,100.00
2022-12-11T15:56:20.940Z,100.00
2022-12-11T15:58:50.697Z,100.00
2022-12-11T16:01:18.644Z,100.00
2022-12-11T16:03:46.426Z,100.00
2022-12-11T16:06:14.755Z,100.00
2022-12-11T16:08:42.540Z,100.00
2022-12-11T16:11:13.682Z,100.00
2022-12-11T16:13:41.516Z,100.00
2022-12-11T16:16:15.158Z,100.00
2022-12-11T16:18:42.913Z,100.00
2022-12-11T16:21:10.694Z,100.00
2022-12-11T16:23:38.492Z,100.00
2022-12-11T16:26:10.328Z,100.00
2022-12-11T16:28:38.233Z,100.00
2022-12-11T16:31:12.897Z,100.00
2022-12-11T16:33:41.271Z,100.00
2022-12-11T16:36:16.030Z,100.00
2022-12-11T16:38:52.881Z,100.00
2022-12-11T16:41:21.519Z,100.00
2022-12-11T16:43:49.272Z,100.00
2022-12-11T16:46:20.280Z,100.00
2022-12-11T16:48:48.354Z,100.00
2022-12-11T16:51:16.313Z,100.00
2022-12-11T16:53:44.084Z,100.00
2022-12-11T16:56:11.870Z,100.00
2022-12-11T16:58:40.548Z,100.00
2022-12-11T17:01:12.120Z,100.00
2022-12-11T17:03:42.140Z,100.00
2022-12-11T17:06:11.980Z,100.00
2022-12-11T17:08:40.083Z,100.00
2022-12-11T17:11:09.936Z,100.00
2022-12-11T17:13:38.218Z,100.00
2022-12-11T17:16:06.613Z,100.00
2022-12-11T17:18:34.394Z,100.00
2022-12-11T17:21:08.970Z,100.00
2022-12-11T17:23:37.040Z,100.00
2022-12-11T17:26:05.638Z,100.00
2022-12-11T17:28:33.710Z,100.00
2022-12-11T17:31:04.902Z,100.00
2022-12-11T17:33:32.783Z,100.00
2022-12-11T17:36:00.703Z,100.00
2022-12-11T17:38:29.868Z,100.00
2022-12-11T17:40:58.322Z,100.00
2022-12-11T17:43:26.114Z,100.00
2022-12-11T17:45:55.140Z,100.00
2022-12-11T17:48:23.389Z,100.00
2022-12-11T17:50:52.609Z,100.00
2022-12-11T17:53:22.459Z,100.00
2022-12-11T17:55:52.625Z,100.00
2022-12-11T17:58:23.778Z,100.00
2022-12-11T18:00:54.191Z,100.00
2022-12-11T18:03:22.607Z,100.00
2022-12-11T18:05:52.176Z,100.00
2022-12-11T18:08:23.002Z,100.00
2022-12-11T18:10:52.658Z,100.00
2022-12-11T18:13:20.707Z,100.00
2022-12-11T18:15:48.711Z,100.00
2022-12-11T18:18:16.581Z,100.00
2022-12-11T18:20:44.358Z,100.00
2022-12-11T18:23:12.211Z,100.00
2022-12-11T18:25:40.167Z,100.00
2022-12-11T18:28:09.468Z,100.00
2022-12-11T18:30:37.244Z,100.00
2022-12-11T18:33:05.007Z,100.00
2022-12-11T18:35:32.961Z,100.00
2022-12-11T18:38:00.772Z,100.00
2022-12-11T18:40:28.851Z,100.00
2022-12-11T18:42:56.902Z,100.00
2022-12-11T18:45:27.752Z,100.00
2022-12-11T18:47:56.559Z,100.00
2022-12-11T18:50:24.698Z,100.00
2022-12-11T18:52:55.053Z,100.00
2022-12-11T18:55:23.663Z,100.00
2022-12-11T18:57:51.560Z,100.00
2022-12-11T19:00:20.074Z,100.00
2022-12-11T19:02:51.316Z,100.00
2022-12-11T19:05:19.240Z,100.00
2022-12-11T19:07:47.493Z,100.00
2022-12-11T19:10:15.325Z,100.00
2022-12-11T19:12:43.129Z,100.00
2022-12-11T19:15:12.360Z,100.00
2022-12-11T19:17:40.286Z,100.00
2022-12-11T19:20:47.077Z,100.00
2022-12-11T19:22:59.595Z,100.00
2022-12-11T19:25:27.374Z,100.00
2022-12-11T19:27:56.895Z,100.00
2022-12-11T19:30:25.314Z,100.00
2022-12-11T19:32:53.160Z,100.00
2022-12-11T19:35:22.279Z,100.00
2022-12-11T19:37:50.047Z,100.00
2022-12-11T19:40:18.823Z,100.00
2022-12-11T19:42:46.570Z,100.00
2022-12-11T19:45:14.498Z,100.00
2022-12-11T19:47:42.403Z,100.00
2022-12-11T19:50:10.396Z,100.00
2022-12-11T19:52:44.580Z,100.00
2022-12-11T19:55:15.146Z,100.00
2022-12-11T19:57:43.011Z,100.00
2022-12-11T20:00:11.724Z,100.00
2022-12-11T20:02:39.492Z,100.00
2022-12-11T20:05:08.156Z,100.00
2022-12-11T20:07:35.948Z,100.00
2022-12-11T20:10:05.764Z,100.00
2022-12-11T20:12:33.624Z,100.00
2022-12-11T20:15:01.436Z,100.00
2022-12-11T20:17:29.244Z,100.00
2022-12-11T20:19:57.049Z,100.00
2022-12-11T20:22:24.894Z,100.00
2022-12-11T20:24:52.788Z,100.00
2022-12-11T20:27:21.980Z,100.00
2022-12-11T20:29:49.754Z,100.00
2022-12-11T20:32:17.472Z,100.00
2022-12-11T20:34:45.256Z,100.00
2022-12-11T20:37:13.531Z,100.00
2022-12-11T20:39:41.304Z,100.00
2022-12-11T20:42:10.539Z,100.00
2022-12-11T20:44:44.099Z,100.00
2022-12-11T20:47:19.152Z,100.00
2022-12-11T20:49:47.079Z,100.00
2022-12-11T20:52:15.112Z,100.00
2022-12-11T20:54:42.950Z,100.00
2022-12-11T20:57:11.309Z,100.00
2022-12-11T20:59:40.734Z,100.00
2022-12-11T21:02:09.451Z,100.00
2022-12-11T21:04:39.597Z,100.00
2022-12-11T21:07:07.920Z,100.00
2022-12-11T21:09:36.348Z,100.00
2022-12-11T21:12:04.296Z,100.00
2022-12-11T21:14:32.262Z,100.00
2022-12-11T21:17:01.601Z,100.00
2022-12-11T21:19:29.899Z,100.00
2022-12-11T21:21:58.287Z,100.00
2022-12-11T21:24:27.902Z,100.00
2022-12-11T21:26:56.472Z,100.00
2022-12-11T21:29:25.682Z,100.00
2022-12-11T21:31:54.583Z,100.00
2022-12-11T21:34:25.718Z,100.00
2022-12-11T21:36:56.770Z,100.00
2022-12-11T21:39:25.600Z,100.00
2022-12-11T21:41:53.504Z,100.00
2022-12-11T21:47:09.743Z,100.00
2022-12-11T21:49:39.631Z,100.00
2022-12-11T21:52:08.359Z,100.00
2022-12-11T21:54:36.545Z,100.00
2022-12-11T21:57:04.780Z,100.00
2022-12-11T21:59:32.852Z,100.00
2022-12-11T22:02:00.746Z,100.00
2022-12-11T22:04:28.548Z,100.00
2022-12-11T22:06:57.791Z,100.00
2022-12-11T22:09:25.812Z,100.00
2022-12-11T22:11:58.051Z,100.00
2022-12-11T22:14:27.003Z,100.00
2022-12-11T22:16:54.863Z,100.00
2022-12-11T22:19:23.988Z,100.00
2022-12-11T22:21:54.410Z,100.00
2022-12-11T22:24:23.523Z,100.00
2022-12-11T22:26:51.334Z,100.00
2022-12-11T22:29:19.167Z,100.00
2022-12-11T22:31:47.473Z,100.00
2022-12-11T22:34:15.286Z,100.00
2022-12-11T22:36:43.063Z,100.00
2022-12-11T22:39:10.972Z,100.00
2022-12-11T22:41:42.273Z,100.00
2022-12-11T22:44:14.398Z,100.00
2022-12-11T22:46:45.420Z,100.00
2022-12-11T22:49:17.403Z,100.00
2022-12-11T22:51:45.393Z,100.00
2022-12-11T22:54:13.992Z,100.00
2022-12-11T22:56:43.177Z,100.00
2022-12-11T22:59:10.963Z,100.00
2022-12-11T23:01:38.855Z,100.00
2022-12-11T23:04:06.631Z,100.00
2022-12-11T23:06:34.569Z,100.00
2022-12-11T23:09:02.653Z,100.00
2022-12-11T23:11:35.035Z,100.00
2022-12-11T23:14:04.759Z,100.00
2022-12-11T23:16:32.624Z,100.00
2022-12-11T23:19:01.081Z,100.00
2022-12-11T23:21:29.864Z,100.00
2022-12-11T23:23:58.537Z,100.00
2022-12-11T23:26:28.320Z,100.00
2022-12-11T23:28:57.121Z,100.00
2022-12-11T23:31:27.240Z,100.00
2022-12-11T23:33:55.599Z,100.00
2022-12-11T23:36:23.872Z,100.00
2022-12-11T23:38:54.756Z,100.00
2022-12-11T23:41:23.808Z,100.00
2022-12-11T23:43:51.576Z,100.00
2022-12-11T23:46:22.313Z,100.00
2022-12-11T23:48:52.132Z,100.00
2022-12-11T23:51:21.731Z,100.00
2022-12-11T23:53:49.520Z,100.00
2022-12-11T23:56:20.256Z,100.00
2022-12-11T23:58:48.182Z,100.00
